createdAt,value
2023-10-17T00:00:28.648Z,99537.72
2023-10-17T00:05:32.716Z,99539.34
2023-10-17T00:10:41.449Z,99526.78
2023-10-17T00:15:47.465Z,99534.53
2023-10-17T00:20:52.593Z,99533.81
2023-10-17T00:25:56.208Z,99533.13
2023-10-17T00:31:01.136Z,99533.19
2023-10-17T00:36:05.301Z,99528.38
2023-10-17T00:41:10.786Z,99525.63
2023-10-17T00:46:30.432Z,99512.84
2023-10-17T00:51:41.096Z,99510.84
2023-10-17T00:56:45.186Z,99508.50
2023-10-17T01:01:50.220Z,99504.13
2023-10-17T01:06:56.236Z,99510.31
2023-10-17T01:12:00.585Z,99508.47
2023-10-17T01:17:08.969Z,99501.50
2023-10-17T01:22:12.481Z,99508.34
2023-10-17T01:27:17.849Z,99504.00
2023-10-17T01:32:23.557Z,99507.13
2023-10-17T01:37:28.823Z,99519.44
2023-10-17T01:42:34.564Z,99515.19
2023-10-17T01:47:39.628Z,99518.47
2023-10-17T01:52:44.172Z,99520.16
2023-10-17T01:57:49.456Z,99523.38
2023-10-17T02:02:53.360Z,99522.09
2023-10-17T02:07:57.030Z,99517.94
2023-10-17T02:13:05.634Z,99508.81
2023-10-17T02:18:16.507Z,99516.00
2023-10-17T02:23:27.544Z,99516.81
2023-10-17T02:28:46.133Z,99520.91
2023-10-17T02:33:49.708Z,99533.44
2023-10-17T02:38:53.577Z,99531.81
2023-10-17T02:43:58.953Z,99519.41
2023-10-17T02:49:08.299Z,99519.28
2023-10-17T02:54:15.008Z,99529.34
2023-10-17T02:59:23.352Z,99530.50
2023-10-17T03:04:27.561Z,99529.72
2023-10-17T03:09:40.158Z,99522.34
2023-10-17T03:14:58.895Z,99518.56
2023-10-17T03:20:02.610Z,99532.97
2023-10-17T03:25:20.038Z,99525.94
2023-10-17T03:30:25.975Z,99523.06
2023-10-17T03:35:31.272Z,99525.22
2023-10-17T03:40:42.648Z,99523.75
2023-10-17T03:45:53.744Z,99531.88
2023-10-17T03:51:10.269Z,99527.94
2023-10-17T03:56:21.565Z,99537.03
2023-10-17T04:01:28.231Z,99535.47
2023-10-17T04:06:40.688Z,99528.09
2023-10-17T04:11:47.380Z,99528.09
2023-10-17T04:16:54.229Z,99514.72
2023-10-17T04:22:18.389Z,99519.19
2023-10-17T04:27:32.331Z,99509.41
2023-10-17T04:32:39.842Z,99510.28
2023-10-17T04:37:46.427Z,99515.44
2023-10-17T04:42:58.351Z,99522.41
2023-10-17T04:48:14.000Z,99520.13
2023-10-17T04:53:29.698Z,99520.75
2023-10-17T04:58:41.084Z,99527.25
2023-10-17T05:03:51.907Z,99537.66
2023-10-17T05:14:43.849Z,99556.84
2023-10-17T05:20:04.753Z,99554.53
2023-10-17T05:25:26.243Z,99553.88
2023-10-17T05:30:48.658Z,99564.06
2023-10-17T05:36:09.632Z,99571.06
2023-10-17T05:41:44.025Z,99573.03
2023-10-17T05:47:07.015Z,99565.47
2023-10-17T05:52:27.860Z,99569.09
2023-10-17T05:57:57.259Z,99562.25
2023-10-17T06:03:19.516Z,99569.13
2023-10-17T06:08:40.658Z,99569.75
2023-10-17T06:14:02.165Z,99579.88
2023-10-17T06:19:10.396Z,99575.88
2023-10-17T06:24:41.340Z,99574.38
2023-10-17T06:30:02.247Z,99564.19
2023-10-17T06:35:22.278Z,99574.84
2023-10-17T06:40:31.982Z,99567.97
2023-10-17T06:45:38.494Z,99571.50
2023-10-17T06:51:01.209Z,99568.84
2023-10-17T06:56:11.139Z,99566.97
2023-10-17T07:01:28.035Z,99566.88
2023-10-17T07:06:37.578Z,99570.25
2023-10-17T07:11:44.975Z,99560.50
2023-10-17T07:16:49.946Z,99566.38
2023-10-17T07:21:58.778Z,99562.66
2023-10-17T07:27:05.071Z,99564.28
2023-10-17T07:32:16.710Z,99544.19
2023-10-17T07:37:25.563Z,99552.59
2023-10-17T07:42:32.703Z,99543.50
2023-10-17T07:47:36.517Z,99547.69
2023-10-17T07:52:45.089Z,99549.84
2023-10-17T07:57:53.284Z,99554.63
2023-10-17T08:02:59.798Z,99542.78
2023-10-17T08:08:09.897Z,99542.00
2023-10-17T08:13:13.749Z,99537.84
2023-10-17T08:18:17.731Z,99546.91
2023-10-17T08:23:24.321Z,99538.78
2023-10-17T08:28:34.603Z,99541.16
2023-10-17T08:33:42.147Z,99532.59
2023-10-17T08:38:48.855Z,99528.53
2023-10-17T08:43:54.609Z,99526.97
2023-10-17T08:48:58.735Z,99523.13
2023-10-17T08:54:06.420Z,99521.66
2023-10-17T08:59:13.182Z,99517.72
2023-10-17T09:04:19.838Z,99517.44
2023-10-17T09:09:24.818Z,99506.16
2023-10-17T09:14:30.565Z,99490.88
2023-10-17T09:19:41.547Z,99490.81
2023-10-17T09:24:51.191Z,99488.69
2023-10-17T09:29:57.285Z,99485.88
2023-10-17T09:35:05.299Z,99489.56
2023-10-17T09:40:15.678Z,99474.25
2023-10-17T09:50:27.334Z,99458.66
2023-10-17T09:55:33.483Z,99446.00
2023-10-17T10:00:42.473Z,99440.47
2023-10-17T10:05:46.244Z,99433.75
2023-10-17T10:10:53.867Z,99430.75
2023-10-17T10:16:02.644Z,99424.09
2023-10-17T10:21:08.819Z,99420.84
2023-10-17T10:26:20.667Z,99416.03
2023-10-17T10:31:40.031Z,99402.75
2023-10-17T10:36:44.782Z,99403.75
2023-10-17T10:42:01.805Z,99386.63
2023-10-17T10:47:08.388Z,99377.97
2023-10-17T10:52:12.256Z,99387.50
2023-10-17T10:57:18.407Z,99384.75
2023-10-17T11:02:22.590Z,99381.38
2023-10-17T11:07:26.593Z,99369.19
2023-10-17T11:12:31.667Z,99371.69
2023-10-17T11:17:36.168Z,99361.06
2023-10-17T11:22:42.120Z,99359.63
2023-10-17T11:27:54.737Z,99345.66
2023-10-17T11:33:03.630Z,99332.13
2023-10-17T11:38:09.978Z,99326.59
2023-10-17T11:43:20.145Z,99324.31
2023-10-17T11:48:30.712Z,99324.22
2023-10-17T11:53:34.714Z,99331.72
2023-10-17T11:58:39.933Z,99318.59
2023-10-17T12:03:43.570Z,99326.41
2023-10-17T12:08:47.164Z,99322.41
2023-10-17T12:13:52.113Z,99323.53
2023-10-17T12:18:57.705Z,99327.38
2023-10-17T12:24:01.958Z,99317.88
2023-10-17T12:29:06.978Z,99312.56
2023-10-17T12:34:10.819Z,99321.13
2023-10-17T12:39:15.977Z,99311.56
2023-10-17T12:44:21.021Z,99307.41
2023-10-17T12:49:25.828Z,99305.97
2023-10-17T12:54:29.830Z,99312.38
2023-10-17T12:59:35.012Z,99297.50
2023-10-17T13:04:38.717Z,99284.34
2023-10-17T13:09:42.962Z,99278.78
2023-10-17T13:14:47.877Z,99270.16
2023-10-17T13:19:52.966Z,99282.81
2023-10-17T13:24:56.685Z,99281.72
2023-10-17T13:30:01.849Z,99274.41
2023-10-17T13:35:09.383Z,99279.19
2023-10-17T13:40:13.317Z,99276.84
2023-10-17T13:45:18.536Z,99277.03
2023-10-17T13:50:23.020Z,99271.38
2023-10-17T13:55:27.627Z,99265.34
2023-10-17T14:00:44.441Z,99260.16
2023-10-17T14:05:49.036Z,99258.25
2023-10-17T14:10:52.940Z,99249.75
2023-10-17T14:15:58.753Z,99245.44
2023-10-17T14:21:18.479Z,99257.78
2023-10-17T14:26:22.294Z,99257.28
2023-10-17T14:31:27.289Z,99261.75
2023-10-17T14:36:31.076Z,99263.63
2023-10-17T14:41:36.637Z,99268.94
2023-10-17T14:46:41.576Z,99264.53
2023-10-17T14:51:45.171Z,99263.75
2023-10-17T14:56:48.757Z,99264.03
2023-10-17T15:01:53.762Z,99260.63
2023-10-17T15:06:57.586Z,99253.78
2023-10-17T15:12:01.102Z,99259.13
2023-10-17T15:17:06.633Z,99256.56
2023-10-17T15:22:10.510Z,99270.63
2023-10-17T15:27:15.749Z,99273.25
2023-10-17T15:32:20.733Z,99271.56
2023-10-17T15:37:24.218Z,99269.84
2023-10-17T15:42:28.188Z,99268.41
2023-10-17T15:47:33.348Z,99270.16
2023-10-17T15:52:37.096Z,99275.53
2023-10-17T15:57:41.777Z,99279.03
2023-10-17T16:02:46.961Z,99282.56
2023-10-17T16:07:50.668Z,99280.78
2023-10-17T16:12:54.271Z,99281.06
2023-10-17T16:17:59.172Z,99280.13
2023-10-17T16:23:02.864Z,99268.84
2023-10-17T16:28:06.886Z,99265.38
2023-10-17T16:33:14.291Z,99270.63
2023-10-17T16:38:17.846Z,99269.88
2023-10-17T16:43:21.856Z,99265.56
2023-10-17T16:48:28.201Z,99261.16
2023-10-17T16:53:33.076Z,99257.75
2023-10-17T16:58:39.387Z,99258.69
2023-10-17T17:03:46.227Z,99250.03
2023-10-17T17:08:50.636Z,99254.44
2023-10-17T17:13:54.833Z,99242.28
2023-10-17T17:19:00.982Z,99234.50
2023-10-17T17:24:09.427Z,99242.34
2023-10-17T17:29:13.168Z,99235.41
2023-10-17T17:34:20.639Z,99239.81
2023-10-17T17:39:25.566Z,99239.00
2023-10-17T17:44:29.381Z,99233.72
2023-10-17T17:49:34.719Z,99243.31
2023-10-17T17:54:38.286Z,99246.78
2023-10-17T17:59:42.721Z,99244.19
2023-10-17T18:04:50.526Z,99246.78
2023-10-17T18:09:54.185Z,99245.00
2023-10-17T18:14:57.806Z,99250.31
2023-10-17T18:20:02.709Z,99251.22
2023-10-17T18:25:07.460Z,99247.81
2023-10-17T18:30:12.594Z,99254.78
2023-10-17T18:35:17.741Z,99251.34
2023-10-17T18:40:22.151Z,99246.97
2023-10-17T18:45:26.834Z,99247.84
2023-10-17T18:50:33.106Z,99242.66
2023-10-17T18:55:37.008Z,99243.53
2023-10-17T19:00:43.437Z,99238.25
2023-10-17T19:05:48.479Z,99239.13
2023-10-17T19:10:54.039Z,99243.53
2023-10-17T19:15:58.874Z,99244.41
2023-10-17T19:21:06.403Z,99249.63
2023-10-17T19:26:13.139Z,99247.03
2023-10-17T19:31:18.301Z,99250.53
2023-10-17T19:36:23.421Z,99245.31
2023-10-17T19:41:27.058Z,99234.91
2023-10-17T19:46:33.400Z,99240.13
2023-10-17T19:51:39.497Z,99241.94
2023-10-17T19:56:43.386Z,99238.53
2023-10-17T20:01:46.948Z,99230.69
2023-10-17T20:06:55.426Z,99225.50
2023-10-17T20:12:00.321Z,99224.69
2023-10-17T20:17:04.518Z,99230.81
2023-10-17T20:22:11.657Z,99235.19
2023-10-17T20:27:15.181Z,99226.56
2023-10-17T20:32:22.572Z,99220.50
2023-10-17T20:37:27.614Z,99216.13
2023-10-17T20:42:31.137Z,99216.19
2023-10-17T20:47:34.816Z,99205.75
2023-10-17T20:52:39.937Z,99200.53
2023-10-17T20:57:43.524Z,99200.53
2023-10-17T21:02:47.302Z,99208.41
2023-10-17T21:07:52.304Z,99204.06
2023-10-17T21:12:56.222Z,99204.06
2023-10-17T21:17:59.867Z,99197.09
2023-10-17T21:23:05.125Z,99197.13
2023-10-17T21:28:10.018Z,99194.53
2023-10-17T21:33:13.549Z,99198.84
2023-10-17T21:38:18.526Z,99196.28
2023-10-17T21:43:22.051Z,99192.81
2023-10-17T21:48:25.624Z,99192.84
2023-10-17T21:53:30.745Z,99187.63
2023-10-17T21:58:36.575Z,99192.03
2023-10-17T22:03:42.898Z,99191.16
2023-10-17T22:08:49.775Z,99192.94
2023-10-17T22:13:53.425Z,99184.25
2023-10-17T22:18:57.193Z,99186.88
2023-10-17T22:24:02.930Z,99182.50
2023-10-17T22:29:06.866Z,99179.94
2023-10-17T22:34:10.997Z,99180.81
2023-10-17T22:39:15.943Z,99183.41
2023-10-17T22:44:19.484Z,99177.38
2023-10-17T22:49:23.099Z,99169.53
2023-10-17T22:54:29.514Z,99180.91
2023-10-17T22:59:33.114Z,99179.19
2023-10-17T23:04:36.601Z,99176.59
2023-10-17T23:09:41.504Z,99172.28
2023-10-17T23:14:45.334Z,99168.88
2023-10-17T23:19:48.844Z,99163.66
2023-10-17T23:24:53.771Z,99164.53
2023-10-17T23:29:59.080Z,99165.41
2023-10-17T23:35:04.104Z,99157.63
2023-10-17T23:40:11.207Z,99163.66
2023-10-17T23:45:16.807Z,99160.16
2023-10-17T23:50:22.706Z,99161.06
2023-10-17T23:55:27.635Z,99164.56
